Monona, Iowa
Current Conditions -  °F | °C
As of 1:35 AM on Thursday 23 Oct 2014 (Local Time) from KPDC Reporting Station
Broken Clouds Broken Clouds  
Wind Chill: 46°   Ceiling: 11000
Heat Index: 48°   Visibility: 10mi
Dew Point: 37°   Wind: 6mph
Humidity: 64%   Direction: 90°E
Pressure: 30.13"   Gusts: NA
Location:  43.05°N, 91.39°W
Report Text: KPDC 230635Z AUTO 09005KT 10SM SCT060 BKN110 09/03 A3013 RMK AO2 T00910026
Loading
Personal Weather Stations






























Interactive Weather Map
Tropical Storm Tracking
New forecast layout! Learn more

10-Day Weather Forecast

Advertisements
Track Severe Weather on mobile